createdAt,value
2019-01-24T00:02:23.119Z,72.79
2019-01-24T00:04:58.691Z,72.94
2019-01-24T00:07:32.165Z,72.96
2019-01-24T00:10:07.001Z,72.87
2019-01-24T00:12:40.579Z,73.02
2019-01-24T00:15:23.391Z,72.82
2019-01-24T00:17:57.883Z,72.90
2019-01-24T00:20:31.850Z,72.79
2019-01-24T00:23:05.288Z,72.72
2019-01-24T00:25:38.979Z,72.81
2019-01-24T00:28:13.508Z,72.84
2019-01-24T00:31:02.794Z,73.03
2019-01-24T00:33:38.302Z,73.22
2019-01-24T00:36:12.836Z,73.21
2019-01-24T00:38:56.938Z,73.16
2019-01-24T00:41:39.865Z,73.03
2019-01-24T00:44:13.002Z,72.95
2019-01-24T00:46:46.140Z,72.76
2019-01-24T00:49:29.543Z,72.83
2019-01-24T00:52:02.513Z,72.86
2019-01-24T00:54:35.995Z,72.72
2019-01-24T00:57:09.315Z,72.93
2019-01-24T00:59:51.831Z,73.52
2019-01-24T01:02:34.134Z,73.70
2019-01-24T01:05:08.531Z,73.61
2019-01-24T01:07:51.174Z,73.43
2019-01-24T01:10:46.555Z,73.63
2019-01-24T01:13:19.460Z,73.83
2019-01-24T01:15:53.626Z,74.06
2019-01-24T01:18:35.953Z,74.23
2019-01-24T01:21:11.171Z,74.18
2019-01-24T01:23:44.666Z,74.22
2019-01-24T01:26:18.096Z,74.27
2019-01-24T01:28:51.233Z,74.37
2019-01-24T01:31:24.958Z,74.22
2019-01-24T01:33:58.559Z,73.71
2019-01-24T01:36:32.486Z,73.55
2019-01-24T01:39:09.240Z,73.37
2019-01-24T01:41:42.576Z,73.42
2019-01-24T01:44:15.769Z,73.57
2019-01-24T01:46:58.072Z,73.49
2019-01-24T01:49:31.050Z,73.61
2019-01-24T01:52:04.246Z,73.54
2019-01-24T01:54:47.233Z,73.77
2019-01-24T01:57:29.638Z,73.88
2019-01-24T02:00:02.852Z,73.77
2019-01-24T02:02:46.100Z,73.74
2019-01-24T02:05:23.868Z,73.69
2019-01-24T02:07:57.475Z,73.79
2019-01-24T02:10:31.086Z,73.56
2019-01-24T02:13:04.952Z,73.58
2019-01-24T02:15:37.315Z,73.49
2019-01-24T02:18:11.186Z,73.56
2019-01-24T02:20:53.725Z,73.75
2019-01-24T02:23:27.282Z,73.56
2019-01-24T02:26:00.500Z,73.75
2019-01-24T02:28:34.327Z,73.76
2019-01-24T02:31:08.057Z,73.64
2019-01-24T02:33:41.751Z,73.55
2019-01-24T02:36:17.355Z,73.63
2019-01-24T02:38:59.327Z,73.49
2019-01-24T02:41:34.094Z,73.82
2019-01-24T02:44:07.214Z,73.96
2019-01-24T02:46:40.156Z,74.00
2019-01-24T02:49:14.635Z,73.94
2019-01-24T02:51:47.778Z,74.16
2019-01-24T02:54:22.152Z,74.32
2019-01-24T02:56:56.468Z,74.29
2019-01-24T02:59:31.005Z,74.12
2019-01-24T03:02:04.914Z,73.98
2019-01-24T03:04:38.059Z,73.83
2019-01-24T03:07:11.520Z,73.76
2019-01-24T03:10:03.327Z,73.94
2019-01-24T03:12:40.177Z,73.49
2019-01-24T03:15:15.031Z,73.75
2019-01-24T03:17:48.940Z,73.82
2019-01-24T03:20:22.395Z,73.62
2019-01-24T03:22:55.907Z,73.61
2019-01-24T03:25:29.279Z,73.77
2019-01-24T03:28:03.524Z,73.85
2019-01-24T03:30:41.263Z,73.62
2019-01-24T03:33:15.491Z,73.73
2019-01-24T03:35:48.825Z,73.47
2019-01-24T03:38:22.344Z,73.56
2019-01-24T03:40:56.853Z,73.61
2019-01-24T03:43:41.719Z,73.78
2019-01-24T03:46:14.867Z,73.92
2019-01-24T03:48:57.245Z,74.05
2019-01-24T03:51:30.811Z,73.82
2019-01-24T03:54:04.016Z,73.64
2019-01-24T03:56:37.415Z,73.66
2019-01-24T03:59:10.941Z,73.88
2019-01-24T04:01:46.018Z,73.75
2019-01-24T04:04:28.178Z,73.63
2019-01-24T04:07:01.793Z,73.58
2019-01-24T04:09:35.844Z,73.32
2019-01-24T04:12:18.150Z,73.28
2019-01-24T04:14:51.291Z,73.09
2019-01-24T04:17:25.909Z,73.02
2019-01-24T04:20:08.835Z,73.14
2019-01-24T04:22:56.912Z,73.03
2019-01-24T04:25:31.056Z,73.08
2019-01-24T04:28:19.429Z,73.08
2019-01-24T04:30:53.202Z,73.22
2019-01-24T04:33:35.718Z,73.35
2019-01-24T04:36:09.223Z,73.20
2019-01-24T04:38:42.840Z,73.25
2019-01-24T04:41:23.183Z,72.97
2019-01-24T04:44:09.672Z,72.79
2019-01-24T04:46:43.281Z,72.72
2019-01-24T04:49:16.804Z,72.72
2019-01-24T04:51:50.592Z,72.81
2019-01-24T04:54:23.983Z,72.92
2019-01-24T04:56:57.466Z,72.71
2019-01-24T04:59:31.021Z,72.66
2019-01-24T05:02:04.210Z,72.39
2019-01-24T05:04:46.091Z,72.50
2019-01-24T05:07:29.276Z,72.23
2019-01-24T05:10:02.760Z,72.36
2019-01-24T05:12:36.187Z,72.48
2019-01-24T05:15:09.922Z,72.73
2019-01-24T05:17:43.523Z,72.78
2019-01-24T05:20:17.364Z,72.77
2019-01-24T05:22:50.889Z,72.61
2019-01-24T05:25:23.596Z,72.48
2019-01-24T05:28:08.259Z,72.44
2019-01-24T05:30:41.723Z,72.37
2019-01-24T05:33:24.780Z,72.19
2019-01-24T05:35:59.110Z,72.16
2019-01-24T05:38:32.541Z,72.08
2019-01-24T05:41:06.971Z,72.11
2019-01-24T05:43:40.509Z,72.38
2019-01-24T05:46:14.348Z,72.23
2019-01-24T05:48:47.492Z,71.97
2019-01-24T05:51:21.341Z,71.91
2019-01-24T05:53:55.450Z,71.84
2019-01-24T05:56:39.605Z,72.04
2019-01-24T05:59:13.225Z,71.99
2019-01-24T06:01:47.179Z,72.08
2019-01-24T06:04:20.643Z,72.53
2019-01-24T06:06:53.759Z,72.61
2019-01-24T06:09:28.196Z,72.55
2019-01-24T06:12:11.143Z,72.49
2019-01-24T06:14:45.763Z,72.22
2019-01-24T06:17:19.979Z,72.10
2019-01-24T06:20:06.424Z,72.26
2019-01-24T06:22:39.574Z,72.39
2019-01-24T06:25:21.941Z,72.53
2019-01-24T06:27:55.250Z,72.62
2019-01-24T06:30:29.213Z,72.68
2019-01-24T06:33:04.165Z,72.53
2019-01-24T06:35:37.655Z,72.52
2019-01-24T06:38:20.486Z,72.46
2019-01-24T06:40:53.608Z,72.27
2019-01-24T06:43:27.890Z,72.40
2019-01-24T06:46:01.388Z,72.54
2019-01-24T06:48:34.546Z,72.48
2019-01-24T06:51:08.034Z,72.32
2019-01-24T06:53:42.039Z,72.09
2019-01-24T06:56:15.842Z,71.93
2019-01-24T06:58:49.295Z,72.16
2019-01-24T07:01:22.481Z,72.36
2019-01-24T07:03:56.081Z,72.49
2019-01-24T07:06:29.961Z,72.45
2019-01-24T07:09:02.538Z,72.53
2019-01-24T07:11:37.459Z,72.85
2019-01-24T07:14:21.277Z,72.85
2019-01-24T07:16:54.740Z,72.82
2019-01-24T07:19:28.338Z,72.81
2019-01-24T07:22:10.518Z,72.92
2019-01-24T07:24:43.982Z,73.01
2019-01-24T07:27:18.091Z,72.76
2019-01-24T07:29:51.229Z,72.62
2019-01-24T07:32:24.720Z,72.54
2019-01-24T07:34:58.260Z,72.48
2019-01-24T07:37:31.495Z,72.82
2019-01-24T07:40:15.199Z,73.16
2019-01-24T07:42:48.454Z,73.31
2019-01-24T07:45:28.073Z,73.50
2019-01-24T07:48:01.178Z,73.55
2019-01-24T07:50:43.632Z,73.74
2019-01-24T07:53:17.839Z,74.09
2019-01-24T07:56:00.952Z,73.97
2019-01-24T07:58:34.550Z,73.91
2019-01-24T08:01:08.416Z,73.98
2019-01-24T08:03:51.380Z,74.29
2019-01-24T08:06:33.700Z,74.42
2019-01-24T08:09:07.985Z,74.49
2019-01-24T08:11:39.447Z,74.39
2019-01-24T08:14:12.908Z,74.14
2019-01-24T08:16:46.262Z,74.21
2019-01-24T08:19:20.348Z,74.21
2019-01-24T08:21:53.473Z,74.22
2019-01-24T08:24:26.723Z,74.34
2019-01-24T08:27:00.246Z,74.39
2019-01-24T08:29:33.531Z,74.37
2019-01-24T08:32:16.010Z,74.36
2019-01-24T08:34:49.519Z,74.28
2019-01-24T08:37:22.953Z,74.36
2019-01-24T08:39:58.559Z,74.23
2019-01-24T08:42:31.808Z,74.18
2019-01-24T08:45:05.970Z,73.99
2019-01-24T08:47:48.711Z,73.95
2019-01-24T08:50:22.736Z,74.09
2019-01-24T08:52:55.871Z,74.25
2019-01-24T08:55:40.221Z,74.23
2019-01-24T08:58:14.129Z,74.00
2019-01-24T09:00:47.263Z,73.71
2019-01-24T09:03:29.662Z,73.84
2019-01-24T09:06:12.317Z,73.57
2019-01-24T09:08:45.129Z,73.55
2019-01-24T09:11:26.995Z,73.26
2019-01-24T09:14:00.135Z,73.19
2019-01-24T09:16:33.859Z,73.19
2019-01-24T09:19:07.415Z,73.11
2019-01-24T09:21:40.942Z,73.14
2019-01-24T09:24:24.892Z,72.93
2019-01-24T09:27:08.111Z,72.60
2019-01-24T09:29:41.987Z,72.57
2019-01-24T09:32:15.176Z,73.15
2019-01-24T09:34:48.684Z,73.22
2019-01-24T09:37:21.936Z,73.16
2019-01-24T09:39:55.774Z,72.86
2019-01-24T09:42:29.425Z,72.87
2019-01-24T09:45:03.297Z,72.66
2019-01-24T09:47:37.054Z,72.44
2019-01-24T09:50:13.199Z,72.40
2019-01-24T09:52:47.495Z,72.65
2019-01-24T09:55:21.123Z,72.56
2019-01-24T09:57:54.266Z,72.47
2019-01-24T10:00:29.840Z,72.40
2019-01-24T10:03:03.323Z,72.04
2019-01-24T10:05:37.261Z,72.35
2019-01-24T10:08:21.185Z,72.35
2019-01-24T10:11:03.307Z,72.26
2019-01-24T10:13:37.315Z,72.09
2019-01-24T10:16:10.556Z,72.07
2019-01-24T10:18:44.480Z,71.88
2019-01-24T10:21:17.599Z,71.84
2019-01-24T10:23:50.774Z,71.49
2019-01-24T10:26:24.173Z,71.24
2019-01-24T10:29:07.016Z,70.95
2019-01-24T10:31:40.476Z,70.99
2019-01-24T10:34:13.740Z,70.90
2019-01-24T10:36:47.148Z,70.80
2019-01-24T10:39:20.403Z,70.35
2019-01-24T10:42:02.247Z,70.65
2019-01-24T10:44:35.065Z,70.57
2019-01-24T10:47:18.009Z,70.32
2019-01-24T10:49:51.266Z,70.48
2019-01-24T10:52:24.355Z,70.76
2019-01-24T10:55:18.665Z,70.86
2019-01-24T10:57:53.711Z,70.99
2019-01-24T11:00:42.022Z,70.88
2019-01-24T11:03:16.919Z,70.68
2019-01-24T11:05:50.735Z,70.46
2019-01-24T11:08:24.717Z,70.52
2019-01-24T11:11:08.662Z,70.59
2019-01-24T11:13:41.833Z,70.37
2019-01-24T11:16:15.379Z,70.15
2019-01-24T11:18:48.599Z,70.00
2019-01-24T11:21:31.078Z,69.70
2019-01-24T11:24:04.809Z,69.45
2019-01-24T11:26:38.076Z,69.77
2019-01-24T11:29:11.508Z,69.78
2019-01-24T11:31:44.657Z,70.13
2019-01-24T11:34:18.759Z,69.89
2019-01-24T11:36:57.052Z,69.82
2019-01-24T11:39:27.418Z,70.24
2019-01-24T11:42:00.952Z,70.22
2019-01-24T11:44:34.521Z,70.27
2019-01-24T11:47:09.863Z,70.13
2019-01-24T11:49:43.004Z,70.14
2019-01-24T11:52:16.145Z,69.73
2019-01-24T11:54:58.443Z,69.63
2019-01-24T11:57:31.625Z,69.25
2019-01-24T12:00:06.363Z,69.43
2019-01-24T12:02:48.778Z,69.67
2019-01-24T12:05:21.935Z,69.30
2019-01-24T12:07:55.293Z,68.94
2019-01-24T12:10:28.823Z,68.64
2019-01-24T12:13:02.367Z,68.83
2019-01-24T12:15:35.920Z,68.26
2019-01-24T12:18:09.453Z,68.61
2019-01-24T12:20:51.358Z,68.16
2019-01-24T12:23:26.199Z,68.24
2019-01-24T12:25:59.670Z,68.44
2019-01-24T12:28:33.623Z,68.47
2019-01-24T12:31:06.987Z,68.16
2019-01-24T12:33:40.764Z,68.10
2019-01-24T12:36:13.907Z,68.03
2019-01-24T12:38:47.670Z,67.70
2019-01-24T12:41:20.780Z,67.62
2019-01-24T12:44:03.302Z,68.44
2019-01-24T12:46:36.585Z,68.62
2019-01-24T12:49:10.163Z,67.88
2019-01-24T12:51:44.042Z,67.63
2019-01-24T12:54:17.562Z,67.97
2019-01-24T12:57:02.172Z,67.96
2019-01-24T12:59:35.956Z,67.75
2019-01-24T13:02:10.401Z,67.21
2019-01-24T13:04:52.308Z,67.93
2019-01-24T13:07:26.154Z,67.58
2019-01-24T13:09:59.727Z,67.03
2019-01-24T13:12:34.128Z,67.03
2019-01-24T13:15:08.323Z,67.01
2019-01-24T13:17:41.728Z,66.82
2019-01-24T13:20:16.100Z,66.28
2019-01-24T13:22:50.526Z,65.63
2019-01-24T13:25:25.742Z,66.00
2019-01-24T13:28:08.693Z,66.76
2019-01-24T13:30:42.091Z,67.12
2019-01-24T13:33:15.347Z,66.00
2019-01-24T13:35:51.964Z,65.62
2019-01-24T13:38:26.085Z,65.23
2019-01-24T13:41:09.203Z,65.45
2019-01-24T13:43:42.927Z,65.36
2019-01-24T13:46:16.314Z,65.10
2019-01-24T13:48:49.681Z,65.32
2019-01-24T13:51:23.130Z,65.06
2019-01-24T13:53:56.570Z,65.38
2019-01-24T13:56:28.002Z,65.15
2019-01-24T13:59:01.593Z,64.68
2019-01-24T14:01:34.761Z,64.36
2019-01-24T14:04:35.166Z,64.36
2019-01-24T14:07:08.971Z,63.69
2019-01-24T14:09:42.120Z,64.60
2019-01-24T14:12:24.468Z,64.72
2019-01-24T14:14:57.617Z,64.67
2019-01-24T14:17:30.899Z,64.67
2019-01-24T14:20:05.288Z,64.08
2019-01-24T14:22:39.158Z,64.65
2019-01-24T14:25:21.489Z,65.06
2019-01-24T14:27:56.019Z,65.40
2019-01-24T14:30:29.131Z,65.46
2019-01-24T14:33:11.441Z,64.76
2019-01-24T14:35:47.697Z,65.28
2019-01-24T14:38:21.770Z,65.21
2019-01-24T14:40:55.204Z,64.08
2019-01-24T14:43:28.987Z,63.30
2019-01-24T14:46:02.113Z,64.33
2019-01-24T14:48:35.383Z,64.58
2019-01-24T14:51:17.636Z,64.89
2019-01-24T14:53:51.153Z,65.12
2019-01-24T14:56:34.254Z,65.06
2019-01-24T14:59:17.266Z,64.50
2019-01-24T15:01:59.965Z,64.67
2019-01-24T15:04:32.006Z,64.91
2019-01-24T15:07:06.352Z,65.00
2019-01-24T15:09:39.429Z,64.22
2019-01-24T15:12:12.852Z,64.30
2019-01-24T15:14:55.460Z,64.12
2019-01-24T15:17:29.220Z,64.71
2019-01-24T15:20:19.574Z,64.99
2019-01-24T15:22:52.734Z,64.66
2019-01-24T15:25:27.965Z,65.35
2019-01-24T15:28:01.732Z,65.52
2019-01-24T15:30:35.533Z,65.63
2019-01-24T15:33:08.992Z,65.72
2019-01-24T15:35:42.514Z,65.57
2019-01-24T15:38:16.353Z,65.60
2019-01-24T15:40:50.090Z,65.77
2019-01-24T15:43:22.899Z,65.52
2019-01-24T15:46:06.253Z,65.27
2019-01-24T15:48:48.711Z,65.33
2019-01-24T15:51:22.671Z,65.70
2019-01-24T15:53:56.523Z,65.63
2019-01-24T15:56:39.892Z,65.81
2019-01-24T15:59:12.719Z,65.58
2019-01-24T16:01:45.806Z,65.60
2019-01-24T16:04:28.429Z,65.51
2019-01-24T16:07:02.815Z,65.18
2019-01-24T16:09:36.563Z,65.10
2019-01-24T16:12:09.775Z,65.30
2019-01-24T16:14:43.024Z,65.14
2019-01-24T16:17:25.892Z,64.95
2019-01-24T16:20:17.548Z,64.94
2019-01-24T16:22:51.025Z,65.07
2019-01-24T16:25:28.149Z,64.76
2019-01-24T16:28:01.386Z,64.67
2019-01-24T16:30:35.593Z,64.73
2019-01-24T16:33:10.885Z,64.91
2019-01-24T16:35:46.552Z,64.94
2019-01-24T16:38:20.479Z,65.12
2019-01-24T16:40:54.665Z,65.00
2019-01-24T16:43:31.344Z,65.07
2019-01-24T16:46:06.156Z,65.06
2019-01-24T16:48:39.760Z,64.84
2019-01-24T16:51:13.967Z,64.71
2019-01-24T16:53:56.570Z,65.14
2019-01-24T16:56:29.735Z,65.19
2019-01-24T16:59:05.468Z,65.21
2019-01-24T17:01:38.583Z,65.08
2019-01-24T17:04:11.819Z,65.36
2019-01-24T17:06:45.967Z,65.23
2019-01-24T17:09:29.321Z,65.28
2019-01-24T17:12:12.661Z,65.18
2019-01-24T17:14:49.220Z,65.33
2019-01-24T17:17:23.425Z,65.37
2019-01-24T17:20:19.746Z,64.82
2019-01-24T17:22:53.987Z,65.01
2019-01-24T17:25:40.017Z,65.08
2019-01-24T17:28:12.869Z,65.42
2019-01-24T17:30:55.937Z,65.29
2019-01-24T17:33:29.211Z,65.47
2019-01-24T17:36:02.713Z,65.47
2019-01-24T17:38:37.098Z,65.62
2019-01-24T17:41:10.766Z,65.58
2019-01-24T17:43:49.305Z,65.63
2019-01-24T17:46:32.026Z,65.12
2019-01-24T17:49:05.318Z,65.10
2019-01-24T17:51:38.626Z,64.79
2019-01-24T17:54:11.483Z,64.74
2019-01-24T17:56:55.759Z,64.58
2019-01-24T17:59:29.271Z,64.85
2019-01-24T18:02:03.174Z,64.61
2019-01-24T18:04:36.700Z,64.60
2019-01-24T18:07:10.391Z,65.07
2019-01-24T18:09:43.518Z,65.11
2019-01-24T18:12:27.228Z,65.05
2019-01-24T18:15:13.508Z,64.97
2019-01-24T18:17:47.685Z,65.13
2019-01-24T18:20:22.130Z,65.31
2019-01-24T18:23:04.703Z,65.46
2019-01-24T18:25:47.946Z,65.88
2019-01-24T18:28:21.144Z,65.77
2019-01-24T18:30:54.587Z,65.81
2019-01-24T18:33:27.854Z,65.15
2019-01-24T18:36:02.096Z,65.65
2019-01-24T18:38:38.547Z,65.84
2019-01-24T18:41:10.247Z,65.85
2019-01-24T18:43:42.921Z,65.59
2019-01-24T18:46:16.476Z,65.86
2019-01-24T18:48:49.873Z,66.47
2019-01-24T18:51:25.116Z,66.80
2019-01-24T18:53:58.684Z,66.43
2019-01-24T18:56:32.216Z,66.63
2019-01-24T18:59:05.380Z,66.74
2019-01-24T19:01:47.232Z,66.49
2019-01-24T19:04:20.999Z,66.56
2019-01-24T19:06:54.135Z,66.67
2019-01-24T19:09:27.311Z,66.52
2019-01-24T19:12:09.936Z,67.06
2019-01-24T19:14:45.016Z,67.56
2019-01-24T19:17:18.583Z,67.47
2019-01-24T19:19:52.488Z,67.23
2019-01-24T19:22:25.731Z,66.62
2019-01-24T19:24:59.630Z,66.26
2019-01-24T19:27:32.698Z,66.45
2019-01-24T19:30:11.473Z,66.83
2019-01-24T19:32:44.838Z,66.81
2019-01-24T19:35:18.285Z,66.67
2019-01-24T19:37:51.746Z,66.83
2019-01-24T19:40:25.794Z,66.87
2019-01-24T19:42:58.928Z,66.96
2019-01-24T19:45:41.199Z,67.19
2019-01-24T19:48:15.396Z,67.38
2019-01-24T19:50:48.311Z,67.70
2019-01-24T19:53:33.479Z,67.99
2019-01-24T19:56:07.426Z,68.27
2019-01-24T19:58:50.174Z,68.18
2019-01-24T20:01:34.920Z,68.41
2019-01-24T20:04:08.460Z,68.50
2019-01-24T20:06:41.582Z,68.31
2019-01-24T20:09:14.748Z,68.10
2019-01-24T20:11:57.067Z,67.99
2019-01-24T20:14:31.394Z,67.70
2019-01-24T20:17:14.616Z,67.76
2019-01-24T20:19:48.768Z,67.52
2019-01-24T20:22:30.725Z,67.67
2019-01-24T20:25:04.634Z,68.08
2019-01-24T20:27:38.121Z,68.52
2019-01-24T20:30:17.093Z,68.08
2019-01-24T20:33:01.679Z,67.59
2019-01-24T20:35:45.192Z,67.72
2019-01-24T20:38:27.861Z,67.58
2019-01-24T20:41:01.326Z,67.50
2019-01-24T20:43:35.466Z,67.88
2019-01-24T20:46:18.767Z,67.55
2019-01-24T20:48:52.276Z,67.39
2019-01-24T20:51:26.091Z,67.36
2019-01-24T20:53:59.699Z,67.75
2019-01-24T20:56:35.279Z,68.23
2019-01-24T20:59:18.889Z,68.21
2019-01-24T21:01:52.415Z,68.17
2019-01-24T21:04:26.507Z,67.90
2019-01-24T21:07:00.268Z,68.13
2019-01-24T21:09:33.858Z,68.64
2019-01-24T21:12:07.870Z,68.77
2019-01-24T21:14:52.016Z,69.12
2019-01-24T21:17:25.666Z,68.95
2019-01-24T21:19:59.454Z,68.79
2019-01-24T21:22:34.698Z,68.14
2019-01-24T21:25:09.672Z,67.86
2019-01-24T21:27:45.003Z,67.68
2019-01-24T21:30:19.655Z,68.30
2019-01-24T21:32:53.916Z,68.52
2019-01-24T21:35:29.158Z,68.52
2019-01-24T21:38:02.744Z,67.71
2019-01-24T21:40:38.768Z,68.31
2019-01-24T21:43:23.359Z,68.77
2019-01-24T21:46:07.787Z,68.94
2019-01-24T21:49:01.399Z,68.77
2019-01-24T21:51:49.454Z,69.14
2019-01-24T21:54:22.760Z,69.00
2019-01-24T21:56:56.234Z,68.12
2019-01-24T21:59:32.154Z,67.78
2019-01-24T22:02:05.792Z,67.85
2019-01-24T22:04:39.861Z,67.62
2019-01-24T22:08:21.774Z,67.69
2019-01-24T22:11:12.806Z,67.70
2019-01-24T22:13:56.538Z,67.88
2019-01-24T22:16:30.671Z,67.96
2019-01-24T22:19:04.643Z,67.70
2019-01-24T22:21:46.742Z,67.42
2019-01-24T22:24:20.693Z,67.76
2019-01-24T22:26:54.889Z,67.62
2019-01-24T22:29:37.170Z,67.80
2019-01-24T22:32:09.483Z,67.99
2019-01-24T22:34:43.264Z,68.13
2019-01-24T22:37:16.043Z,68.63
2019-01-24T22:39:49.877Z,68.46
2019-01-24T22:42:23.534Z,68.58
2019-01-24T22:44:57.972Z,68.75
2019-01-24T22:47:31.172Z,69.15
2019-01-24T22:50:15.390Z,68.62
2019-01-24T22:52:50.515Z,68.69
2019-01-24T22:55:32.430Z,68.88
2019-01-24T22:58:07.175Z,69.07
2019-01-24T23:01:16.811Z,69.33
2019-01-24T23:03:57.322Z,69.47
2019-01-24T23:06:42.317Z,69.25
2019-01-24T23:09:16.538Z,69.28
2019-01-24T23:11:58.782Z,69.17
2019-01-24T23:14:32.489Z,69.33
2019-01-24T23:17:06.956Z,69.85
2019-01-24T23:19:40.870Z,70.05
2019-01-24T23:22:14.704Z,69.98
2019-01-24T23:24:48.087Z,69.92
2019-01-24T23:27:22.109Z,70.02
2019-01-24T23:29:55.956Z,70.35
2019-01-24T23:32:41.022Z,70.22
2019-01-24T23:35:16.511Z,70.22
2019-01-24T23:37:52.502Z,70.37
2019-01-24T23:40:24.985Z,70.14
2019-01-24T23:42:58.514Z,70.16
2019-01-24T23:45:32.083Z,70.18
2019-01-24T23:48:14.129Z,70.28
2019-01-24T23:50:56.881Z,70.52
2019-01-24T23:53:30.779Z,70.42
2019-01-24T23:56:04.308Z,70.08
2019-01-24T23:58:37.548Z,69.55
